Time;durP1;ratioP1;P1;durP2;ratioP2;P2;SDS_P1;SDS_P2;PMS_P1;PMS_P2;Temp;Humidity;BMP_temperature;BMP_pressure;BME280_temperature;BME280_humidity;BME280_pressure;Samples;Min_cycle;Max_cycle;Signal;HPM_P1;HPM_P2
2022/10/24 00:00:24;;;;;;;8.03;3.13;;;;;;;14.23;100.00;100536.28;5034740;28;20461;-69
2022/10/24 00:02:51;;;;;;;7.77;3.17;;;;;;;14.21;100.00;100522.19;5034328;28;20463;-69
2022/10/24 00:05:19;;;;;;;7.67;3.07;;;;;;;14.23;100.00;100524.59;5033961;28;20509;-70
2022/10/24 00:07:45;;;;;;;6.80;2.97;;;;;;;14.20;100.00;100504.22;5034618;28;20493;-69
2022/10/24 00:10:13;;;;;;;7.13;3.10;;;;;;;14.18;100.00;100495.59;5033680;28;20467;-69
2022/10/24 00:12:39;;;;;;;9.37;3.30;;;;;;;14.19;100.00;100496.41;5033296;28;20459;-69
2022/10/24 00:15:07;;;;;;;9.80;3.93;;;;;;;14.14;100.00;100509.06;5034033;28;20961;-70
2022/10/24 00:17:34;;;;;;;8.77;3.77;;;;;;;14.10;100.00;100516.28;5033476;28;20447;-71
2022/10/24 00:20:00;;;;;;;11.60;3.27;;;;;;;14.10;100.00;100527.19;5034174;28;20443;-71
2022/10/24 00:22:28;;;;;;;9.07;3.80;;;;;;;14.08;100.00;100528.66;5034150;28;20466;-71
2022/10/24 00:24:55;;;;;;;11.00;3.53;;;;;;;14.07;100.00;100535.22;5033219;28;20483;-71
2022/10/24 00:27:21;;;;;;;7.53;3.10;;;;;;;14.07;100.00;100532.47;5033008;28;20466;-71
2022/10/24 00:29:47;;;;;;;9.40;4.17;;;;;;;14.04;100.00;100530.44;5033849;28;20507;-71
2022/10/24 00:32:14;;;;;;;7.70;3.37;;;;;;;14.04;100.00;100533.16;5034010;28;20476;-71
2022/10/24 00:34:41;;;;;;;7.10;3.23;;;;;;;14.03;100.00;100520.63;5033011;28;20466;-71
2022/10/24 00:37:07;;;;;;;9.60;3.13;;;;;;;14.05;100.00;100523.84;5034126;28;20446;-71
2022/10/24 00:39:35;;;;;;;10.47;3.93;;;;;;;14.06;100.00;100525.44;5032830;28;20476;-71
2022/10/24 00:42:03;;;;;;;8.60;3.63;;;;;;;14.05;100.00;100527.38;5032693;28;20523;-71
2022/10/24 00:44:32;;;;;;;8.50;3.30;;;;;;;14.08;100.00;100534.09;5033681;28;20938;-71
2022/10/24 00:47:02;;;;;;;9.03;3.17;;;;;;;14.09;100.00;100554.78;5033125;28;20446;-71
2022/10/24 00:49:32;;;;;;;8.13;3.50;;;;;;;14.09;100.00;100552.03;5033696;28;20937;-71
2022/10/24 00:52:02;;;;;;;6.60;3.17;;;;;;;14.10;100.00;100570.78;5031181;28;20498;-71
2022/10/24 00:54:29;;;;;;;7.43;2.93;;;;;;;14.07;100.00;100565.16;5032292;28;20470;-71
2022/10/24 00:57:02;;;;;;;8.20;3.40;;;;;;;14.06;100.00;100569.03;5032600;28;20459;-70
2022/10/24 00:59:29;;;;;;;7.63;2.90;;;;;;;14.08;100.00;100564.06;5033241;28;20976;-71
2022/10/24 01:01:56;;;;;;;6.30;2.93;;;;;;;14.09;100.00;100569.19;5031769;28;20479;-71
2022/10/24 01:04:22;;;;;;;7.20;3.00;;;;;;;14.07;100.00;100571.41;5033568;28;20458;-71
2022/10/24 01:07:03;;;;;;;7.10;3.43;;;;;;;14.09;100.00;100568.38;5032362;28;21005;-71
2022/10/24 01:09:49;;;;;;;8.20;3.70;;;;;;;14.07;100.00;100565.97;5032040;28;20427;-70
2022/10/24 01:12:25;;;;;;;6.23;2.90;;;;;;;14.04;100.00;100554.94;5032416;28;20497;-71
2022/10/24 01:15:03;;;;;;;8.07;2.67;;;;;;;14.04;100.00;100555.75;5032382;28;20459;-71
2022/10/24 01:17:37;;;;;;;7.83;3.17;;;;;;;14.06;100.00;100552.69;5033429;28;20432;-71
2022/10/24 01:20:29;;;;;;;9.27;3.57;;;;;;;14.03;100.00;100554.16;5031851;28;20969;-71
2022/10/24 01:23:12;;;;;;;12.50;3.30;;;;;;;14.05;100.00;100543.72;5033067;28;20463;-71
2022/10/24 01:25:47;;;;;;;9.00;3.20;;;;;;;14.10;100.00;100523.66;5032105;28;20470;-71
2022/10/24 01:28:18;;;;;;;7.90;3.20;;;;;;;14.09;100.00;100506.53;5032965;28;20898;-71
2022/10/24 01:30:51;;;;;;;8.23;3.90;;;;;;;14.11;100.00;100508.91;5030709;28;20954;-71
2022/10/24 01:33:26;;;;;;;5.33;2.50;;;;;;;14.12;100.00;100510.50;5033143;28;20517;-71
2022/10/24 01:35:56;;;;;;;10.00;2.83;;;;;;;14.10;100.00;100520.94;5031780;28;20961;-71
2022/10/24 01:38:28;;;;;;;10.60;3.47;;;;;;;14.06;100.00;100520.78;5033109;28;20470;-71
2022/10/24 01:40:59;;;;;;;8.47;3.50;;;;;;;14.08;100.00;100515.03;5032080;28;20455;-71
2022/10/24 01:43:28;;;;;;;8.13;3.77;;;;;;;14.02;100.00;100514.41;5033144;28;20821;-71
2022/10/24 01:46:01;;;;;;;7.63;2.87;;;;;;;14.03;100.00;100509.75;5031645;28;20532;-71
2022/10/24 01:48:31;;;;;;;7.30;3.23;;;;;;;14.00;100.00;100505.78;5033102;28;20428;-71
2022/10/24 01:51:00;;;;;;;7.80;3.07;;;;;;;14.03;100.00;100513.28;5030737;28;20467;-71
2022/10/24 01:53:28;;;;;;;6.80;3.20;;;;;;;14.00;100.00;100508.50;5033012;28;20478;-71
2022/10/24 01:55:56;;;;;;;6.17;2.57;;;;;;;13.97;100.00;100492.78;5031964;28;20493;-71
2022/10/24 01:58:23;;;;;;;6.00;3.00;;;;;;;13.96;100.00;100493.13;5032883;28;20449;-71
2022/10/24 02:00:52;;;;;;;8.03;3.27;;;;;;;13.92;100.00;100494.91;5030791;28;20467;-71
2022/10/24 02:03:24;;;;;;;8.50;3.27;;;;;;;13.91;100.00;100482.41;5032767;28;20463;-72
2022/10/24 02:05:55;;;;;;;11.63;4.67;;;;;;;13.92;100.00;100484.00;5031536;28;20993;-71
2022/10/24 02:08:29;;;;;;;6.83;2.73;;;;;;;13.92;100.00;100479.38;5032932;28;20431;-71
2022/10/24 02:11:00;;;;;;;9.20;3.13;;;;;;;13.89;100.00;100480.78;5032641;28;20455;-71
2022/10/24 02:13:34;;;;;;;7.07;2.97;;;;;;;13.88;100.00;100468.31;5036777;28;20435;-71
2022/10/24 02:16:02;;;;;;;10.77;3.60;;;;;;;13.83;100.00;100479.38;5035578;28;20455;-71
2022/10/24 02:18:32;;;;;;;6.60;2.80;;;;;;;13.82;100.00;100466.91;5035578;28;20471;-71
2022/10/24 02:21:07;;;;;;;6.23;2.80;;;;;;;13.80;100.00;100463.69;5036506;28;20450;-72
2022/10/24 02:23:42;;;;;;;23.50;3.50;;;;;;;13.75;100.00;100466.59;5035702;28;20462;-71
2022/10/24 02:26:21;;;;;;;7.10;3.00;;;;;;;13.78;100.00;100471.41;5035308;28;20474;-71
2022/10/24 02:28:53;;;;;;;6.30;3.00;;;;;;;13.70;100.00;100461.34;5036598;28;20477;-71
2022/10/24 02:31:22;;;;;;;6.00;2.67;;;;;;;13.66;100.00;100465.81;5035033;28;21001;-71
2022/10/24 02:33:51;;;;;;;6.27;2.90;;;;;;;13.69;100.00;100457.03;5036003;28;20975;-71
2022/10/24 02:36:24;;;;;;;8.37;3.10;;;;;;;13.69;100.00;100457.03;5034948;28;21023;-70
2022/10/24 02:38:53;;;;;;;8.63;2.80;;;;;;;13.65;100.00;100453.34;5036414;28;20564;-71
2022/10/24 02:41:26;;;;;;;7.07;3.03;;;;;;;13.64;100.00;100449.03;5035378;28;20883;-72
2022/10/24 02:43:54;;;;;;;6.60;3.07;;;;;;;13.62;100.00;100451.25;5036268;28;20424;-71
2022/10/24 02:46:21;;;;;;;6.60;2.67;;;;;;;13.58;100.00;100450.31;5034929;28;20494;-71
2022/10/24 02:48:54;;;;;;;7.67;3.70;;;;;;;13.53;100.00;100448.56;5036117;28;20459;-71
2022/10/24 02:51:22;;;;;;;8.30;3.97;;;;;;;13.46;100.00;100442.84;5034729;28;20486;-71
2022/10/24 02:53:50;;;;;;;7.70;3.00;;;;;;;13.42;100.00;100451.97;5036055;28;20419;-71
2022/10/24 02:56:16;;;;;;;7.00;3.27;;;;;;;13.40;100.00;100448.75;5034719;28;20463;-71
2022/10/24 02:58:43;;;;;;;8.63;3.00;;;;;;;13.41;100.00;100442.19;5035844;28;20459;-70
2022/10/24 03:01:09;;;;;;;8.50;3.03;;;;;;;13.31;100.00;100437.88;5034676;28;20513;-70
2022/10/24 03:03:36;;;;;;;6.80;3.57;;;;;;;13.34;100.00;100439.97;5035749;28;20466;-71
2022/10/24 03:06:04;;;;;;;7.20;2.70;;;;;;;13.37;100.00;100444.78;5033565;28;20493;-70
2022/10/24 03:08:30;;;;;;;7.67;3.10;;;;;;;13.30;100.00;100456.13;5035688;28;20458;-71
2022/10/24 03:10:57;;;;;;;7.00;2.80;;;;;;;13.27;100.00;100455.97;5034789;28;20455;-70
2022/10/24 03:13:23;;;;;;;6.90;2.67;;;;;;;13.24;100.00;100452.00;5035342;28;20937;-70
2022/10/24 03:15:50;;;;;;;9.23;2.43;;;;;;;13.27;100.00;100458.69;5034772;28;20462;-70
2022/10/24 03:18:16;;;;;;;8.63;2.87;;;;;;;13.28;100.00;100455.69;5034389;28;20467;-71
2022/10/24 03:20:42;;;;;;;6.20;2.87;;;;;;;13.32;100.00;100447.66;5035172;28;20942;-73
2022/10/24 03:23:10;;;;;;;10.47;3.67;;;;;;;13.34;100.00;100465.25;5034595;28;20482;-73
2022/10/24 03:25:37;;;;;;;7.00;2.60;;;;;;;13.34;100.00;100461.75;5035414;28;20450;-70
2022/10/24 03:28:04;;;;;;;8.77;3.13;;;;;;;13.36;100.00;100460.28;5033083;28;20470;-69
2022/10/24 03:30:30;;;;;;;6.67;3.07;;;;;;;13.36;100.00;100452.13;5035363;28;20442;-68
2022/10/24 03:32:57;;;;;;;5.20;2.20;;;;;;;13.40;100.00;100459.63;5034047;28;20886;-68
2022/10/24 03:35:23;;;;;;;6.17;2.53;;;;;;;13.41;100.00;100461.22;5035220;28;20447;-69
2022/10/24 03:37:49;;;;;;;6.40;2.37;;;;;;;13.42;100.00;100458.22;5034015;28;20485;-68
2022/10/24 03:40:17;;;;;;;5.33;2.00;;;;;;;13.44;100.00;100460.59;5035147;28;20447;-68
2022/10/24 03:42:44;;;;;;;7.73;2.20;;;;;;;13.41;100.00;100456.59;5034203;28;20881;-68
2022/10/24 03:45:10;;;;;;;6.30;2.40;;;;;;;13.45;100.00;100454.03;5035014;28;20447;-68
2022/10/24 03:47:37;;;;;;;7.63;3.03;;;;;;;13.41;100.00;100456.59;5033659;28;20514;-68
2022/10/24 03:50:04;;;;;;;5.40;2.30;;;;;;;13.38;100.00;100458.06;5033904;28;20459;-68
2022/10/24 03:52:30;;;;;;;5.80;2.57;;;;;;;13.36;100.00;100454.84;5052570;23;20503;-71
2022/10/24 03:54:57;;;;;;;6.23;2.37;;;;;;;13.31;100.00;100455.00;5014637;28;20471;-71
2022/10/24 03:57:25;;;;;;;11.20;2.40;;;;;;;13.31;100.00;100467.81;5015080;28;20451;-71
2022/10/24 03:59:51;;;;;;;10.77;2.80;;;;;;;13.29;100.00;100460.00;5016464;28;20468;-71
2022/10/24 04:02:18;;;;;;;7.00;2.70;;;;;;;13.29;100.00;100470.06;5014546;28;20974;-71
2022/10/24 04:04:44;;;;;;;7.90;2.53;;;;;;;13.22;100.00;100459.66;5014021;28;20468;-71
2022/10/24 04:07:10;;;;;;;5.37;2.47;;;;;;;13.17;100.00;100462.53;5014924;28;20479;-72
2022/10/24 04:09:37;;;;;;;5.57;2.23;;;;;;;13.13;100.00;100456.13;5013625;28;20456;-72
2022/10/24 04:12:04;;;;;;;5.73;2.07;;;;;;;13.11;100.00;100453.72;5014819;28;20514;-71
2022/10/24 04:14:31;;;;;;;6.90;2.97;;;;;;;13.11;100.00;100447.50;5013774;28;20464;-73
2022/10/24 04:16:58;;;;;;;7.10;2.40;;;;;;;13.06;100.00;100443.03;5014669;28;20947;-71
2022/10/24 04:19:24;;;;;;;7.50;3.30;;;;;;;13.02;100.00;100447.50;5012229;28;20463;-71
2022/10/24 04:21:51;;;;;;;5.63;2.80;;;;;;;12.92;100.00;100452.44;5014718;28;20906;-71
2022/10/24 04:24:17;;;;;;;8.90;2.60;;;;;;;12.84;100.00;100448.63;5013524;28;20531;-71
2022/10/24 04:26:44;;;;;;;9.13;2.77;;;;;;;12.81;100.00;100438.38;5014655;28;20484;-71
2022/10/24 04:29:11;;;;;;;6.50;3.33;;;;;;;12.80;100.00;100447.66;5013428;28;20514;-73
2022/10/24 04:31:38;;;;;;;6.60;2.50;;;;;;;12.77;100.00;100448.28;5013480;28;20447;-72
2022/10/24 04:34:05;;;;;;;7.30;2.80;;;;;;;12.77;100.00;100449.09;5014031;28;20452;-71
2022/10/24 04:36:32;;;;;;;5.70;2.20;;;;;;;12.75;100.00;100451.34;5013698;28;20455;-73
2022/10/24 04:38:58;;;;;;;7.67;2.43;;;;;;;12.76;100.00;100444.78;5012771;28;20473;-73
2022/10/24 04:41:24;;;;;;;6.83;2.47;;;;;;;12.74;100.00;100447.00;4994715;28;20798;-71
2022/10/24 04:43:52;;;;;;;13.30;2.83;;;;;;;12.72;100.00;100443.03;4999218;28;20492;-71
2022/10/24 04:46:18;;;;;;;8.43;2.53;;;;;;;12.72;100.00;100459.31;5014218;28;20484;-72
2022/10/24 04:48:46;;;;;;;6.37;2.60;;;;;;;12.71;100.00;100455.81;5013403;28;20460;-72
2022/10/24 04:51:12;;;;;;;6.30;2.70;;;;;;;12.72;100.00;100457.41;5014233;28;20494;-71
2022/10/24 04:53:39;;;;;;;7.03;2.73;;;;;;;12.74;100.00;100457.88;5012992;28;20922;-73
2022/10/24 04:56:06;;;;;;;9.60;2.50;;;;;;;12.75;100.00;100464.94;5013801;28;20951;-72
2022/10/24 04:58:33;;;;;;;5.47;2.50;;;;;;;12.75;100.00;100467.66;5013234;28;20911;-72
2022/10/24 05:00:59;;;;;;;8.63;2.97;;;;;;;12.70;100.00;100459.63;5013473;28;20938;-72
2022/10/24 05:03:26;;;;;;;9.13;2.33;;;;;;;12.70;100.00;100470.50;5014064;28;20475;-71
2022/10/24 05:05:53;;;;;;;7.37;2.87;;;;;;;12.71;100.00;100477.56;5013913;28;20875;-71
2022/10/24 05:08:20;;;;;;;6.20;2.77;;;;;;;12.69;100.00;100474.34;5012717;28;20444;-73
2022/10/24 05:10:46;;;;;;;7.30;2.50;;;;;;;12.70;100.00;100473.22;5013670;28;20451;-72
2022/10/24 05:13:13;;;;;;;5.17;2.00;;;;;;;12.70;100.00;100475.94;5013253;28;20538;-73
2022/10/24 05:15:39;;;;;;;5.93;2.27;;;;;;;12.69;100.00;100451.78;5013144;28;20459;-72
2022/10/24 05:18:06;;;;;;;6.60;2.90;;;;;;;12.75;100.00;100451.34;5013548;28;20947;-72
2022/10/24 05:20:32;;;;;;;6.80;2.53;;;;;;;12.77;100.00;100457.25;5012877;28;20517;-72
2022/10/24 05:23:00;;;;;;;9.27;2.70;;;;;;;12.83;100.00;100464.09;5013311;28;20468;-71
2022/10/24 05:25:27;;;;;;;6.40;2.33;;;;;;;12.90;100.00;100465.56;5012343;28;20471;-71
2022/10/24 05:27:53;;;;;;;5.10;2.30;;;;;;;12.94;100.00;100461.09;5013310;28;20534;-72
2022/10/24 05:30:20;;;;;;;7.37;2.40;;;;;;;12.96;100.00;100465.06;5010020;28;20460;-71
2022/10/24 05:32:46;;;;;;;6.77;2.10;;;;;;;12.96;100.00;100475.16;5009498;28;20487;-72
2022/10/24 05:35:13;;;;;;;6.70;2.93;;;;;;;13.01;100.00;100480.44;5013411;28;20452;-71
2022/10/24 05:37:40;;;;;;;6.20;2.57;;;;;;;13.01;100.00;100477.72;5013577;28;20444;-70
2022/10/24 05:40:10;;;;;;;6.83;2.50;;;;;;;13.05;100.00;100465.06;5013503;28;20847;-71
2022/10/24 05:42:37;;;;;;;5.83;2.20;;;;;;;13.06;100.00;100466.69;5012709;28;20467;-71
2022/10/24 05:45:04;;;;;;;8.00;2.87;;;;;;;13.06;100.00;100467.50;5013744;28;20456;-70
2022/10/24 05:47:31;;;;;;;9.97;3.10;;;;;;;13.06;100.00;100466.69;5016017;28;20896;-69
2022/10/24 05:49:57;;;;;;;5.60;2.43;;;;;;;13.10;100.00;100467.63;5017495;28;20436;-70
2022/10/24 05:52:23;;;;;;;9.73;2.40;;;;;;;13.10;100.00;100473.91;5016307;28;20499;-68
2022/10/24 05:54:50;;;;;;;5.90;2.83;;;;;;;13.11;100.00;100458.38;5017570;28;20420;-71
2022/10/24 05:57:18;;;;;;;7.73;2.70;;;;;;;13.03;100.00;100448.31;5016355;28;20875;-69
2022/10/24 05:59:44;;;;;;;6.70;2.30;;;;;;;12.96;100.00;100451.47;5017325;28;20448;-71
2022/10/24 06:02:17;;;;;;;6.17;2.50;;;;;;;12.92;100.00;100444.28;5016370;28;20491;-70
2022/10/24 06:04:44;;;;;;;5.73;2.17;;;;;;;12.92;100.00;100444.28;5016674;28;20458;-70
2022/10/24 06:07:10;;;;;;;4.70;1.40;;;;;;;12.94;100.00;100431.19;5015658;28;20492;-71
2022/10/24 06:09:36;;;;;;;6.57;2.53;;;;;;;12.95;100.00;100436.28;5014776;28;20510;-71
2022/10/24 06:12:03;;;;;;;6.97;2.57;;;;;;;13.00;100.00;100440.78;5015129;28;20475;-70
2022/10/24 06:14:31;;;;;;;6.30;2.93;;;;;;;12.98;100.00;100443.03;5015898;28;20460;-70
2022/10/24 06:16:57;;;;;;;5.60;2.30;;;;;;;12.96;100.00;100439.81;5016089;28;20460;-70
2022/10/24 06:19:24;;;;;;;7.60;2.70;;;;;;;12.98;100.00;100437.59;5016802;28;21008;-71
2022/10/24 06:21:50;;;;;;;11.97;2.93;;;;;;;12.99;100.00;100441.91;5015662;28;20463;-70
2022/10/24 06:24:17;;;;;;;6.93;2.60;;;;;;;12.96;100.00;100439.81;5014552;28;20950;-70
2022/10/24 06:26:43;;;;;;;7.30;2.80;;;;;;;12.96;100.00;100434.38;5012366;28;20542;-69
2022/10/24 06:29:10;;;;;;;5.93;2.57;;;;;;;12.99;100.00;100428.31;5016382;28;20505;-70
2022/10/24 06:31:38;;;;;;;6.87;2.67;;;;;;;13.02;100.00;100439.34;5016702;28;20450;-69
2022/10/24 06:34:04;;;;;;;7.60;2.83;;;;;;;13.06;100.00;100436.78;5016739;28;20444;-69
2022/10/24 06:36:31;;;;;;;7.00;2.67;;;;;;;13.08;100.00;100442.69;5016777;28;20857;-70
2022/10/24 06:38:57;;;;;;;10.30;2.80;;;;;;;13.14;100.00;100441.41;5016288;28;20943;-70
2022/10/24 06:41:24;;;;;;;8.10;3.20;;;;;;;13.18;100.00;100444.28;5016577;28;20447;-70
2022/10/24 06:43:52;;;;;;;6.10;2.37;;;;;;;13.20;100.00;100440.13;5016093;28;21052;-70
2022/10/24 06:46:22;;;;;;;6.07;2.80;;;;;;;13.25;100.00;100442.72;5016500;28;20459;-70
2022/10/24 06:48:53;;;;;;;6.37;2.70;;;;;;;13.35;100.00;100442.38;5016373;28;20483;-69
2022/10/24 06:51:19;;;;;;;6.53;2.60;;;;;;;13.41;100.00;100440.25;5016335;28;20451;-69
2022/10/24 06:53:46;;;;;;;10.80;2.67;;;;;;;13.48;100.00;100448.75;5015939;28;20555;-70
2022/10/24 06:56:13;;;;;;;7.47;3.10;;;;;;;13.59;100.00;100458.16;5015832;28;20483;-70
2022/10/24 06:58:40;;;;;;;7.67;2.67;;;;;;;13.64;100.00;100465.38;5016310;28;20471;-68
2022/10/24 07:01:07;;;;;;;7.80;2.20;;;;;;;13.72;100.00;100467.25;5016239;28;20463;-69
2022/10/24 07:03:34;;;;;;;9.47;2.33;;;;;;;13.78;100.00;100465.16;5016111;28;20468;-69
2022/10/24 07:06:06;;;;;;;6.33;2.80;;;;;;;13.86;100.00;100477.94;5016184;28;20534;-69
2022/10/24 07:08:33;;;;;;;6.63;2.40;;;;;;;13.96;100.00;100484.97;5015759;28;21032;-69
2022/10/24 07:10:59;;;;;;;7.43;2.53;;;;;;;14.03;100.00;100490.69;5016069;28;20444;-68
2022/10/24 07:13:26;;;;;;;9.23;2.57;;;;;;;14.08;100.00;100485.88;5015891;28;20489;-68
2022/10/24 07:15:54;;;;;;;7.00;2.27;;;;;;;14.17;100.00;100498.66;5015949;28;20575;-68
2022/10/24 07:18:20;;;;;;;10.87;2.60;;;;;;;14.22;100.00;100502.00;5015942;28;20878;-69
2022/10/24 07:20:47;;;;;;;6.60;2.20;;;;;;;14.29;100.00;100501.47;5015780;28;20436;-68
2022/10/24 07:23:15;;;;;;;7.40;2.30;;;;;;;14.37;100.00;100504.16;5015359;28;20982;-68
2022/10/24 07:25:41;;;;;;;6.40;2.53;;;;;;;14.40;100.00;100497.25;5015792;28;20447;-69
2022/10/24 07:28:09;;;;;;;6.20;1.97;;;;;;;14.47;100.00;100502.97;5015550;28;20592;-71
2022/10/24 07:30:36;;;;;;;6.37;2.33;;;;;;;14.55;100.00;100506.81;5015575;28;20571;-67
2022/10/24 07:33:03;;;;;;;7.10;2.70;;;;;;;14.61;100.00;100506.31;5015436;28;20472;-67
2022/10/24 07:35:29;;;;;;;7.90;2.93;;;;;;;14.68;100.00;100503.06;5015543;28;20452;-70
2022/10/24 07:37:55;;;;;;;9.07;3.47;;;;;;;14.75;100.00;100508.78;5015190;28;20856;-70
2022/10/24 07:40:23;;;;;;;5.67;2.30;;;;;;;14.76;100.00;100504.13;5015451;28;20498;-70
2022/10/24 07:42:49;;;;;;;8.93;2.30;;;;;;;14.79;100.00;100501.56;5015336;28;20464;-70
2022/10/24 07:45:16;;;;;;;8.17;2.80;;;;;;;14.78;100.00;100513.56;5015437;28;20443;-71
2022/10/24 07:47:42;;;;;;;5.80;2.30;;;;;;;14.86;100.00;100507.25;5015147;28;20480;-70
2022/10/24 07:50:09;;;;;;;11.93;3.00;;;;;;;14.95;100.00;100493.56;5015213;28;20448;-70
2022/10/24 07:52:35;;;;;;;7.23;2.30;;;;;;;15.06;100.00;100505.69;5014911;28;20480;-70
2022/10/24 07:55:02;;;;;;;7.50;2.80;;;;;;;15.21;100.00;100503.47;5015008;28;20857;-70
2022/10/24 07:57:29;;;;;;;8.83;2.60;;;;;;;15.33;100.00;100504.31;5015038;28;20440;-68
2022/10/24 07:59:56;;;;;;;5.63;2.17;;;;;;;15.46;100.00;100498.94;5015166;28;20466;-70
2022/10/24 08:02:22;;;;;;;7.73;3.00;;;;;;;15.58;100.00;100501.66;5014967;28;20559;-70
2022/10/24 08:04:49;;;;;;;7.07;2.10;;;;;;;15.66;100.00;100495.34;5014898;28;20451;-70
2022/10/24 08:07:15;;;;;;;6.23;2.67;;;;;;;15.74;100.00;100499.94;5014936;28;20492;-70
2022/10/24 08:09:44;;;;;;;8.30;2.23;;;;;;;15.77;100.00;100502.00;5014298;28;20447;-70
2022/10/24 08:12:11;;;;;;;7.30;2.13;;;;;;;15.85;100.00;100501.13;5014878;28;20479;-68
2022/10/24 08:14:39;;;;;;;8.47;2.47;;;;;;;15.89;100.00;100501.22;5014853;28;20432;-70
2022/10/24 08:17:05;;;;;;;6.10;2.37;;;;;;;15.97;100.00;100492.13;5014527;28;20970;-68
2022/10/24 08:19:32;;;;;;;5.00;1.93;;;;;;;16.10;100.00;100484.75;5014656;28;20475;-70
2022/10/24 08:22:00;;;;;;;9.67;2.80;;;;;;;16.20;100.00;100500.69;5014577;28;20502;-70
2022/10/24 08:24:26;;;;;;;6.37;2.30;;;;;;;16.31;100.00;100490.91;5014610;28;20463;-70
2022/10/24 08:26:54;;;;;;;6.50;2.30;;;;;;;16.33;100.00;100499.53;5014627;28;20452;-70
2022/10/24 08:29:22;;;;;;;8.63;3.20;;;;;;;16.44;100.00;100504.56;5014473;28;20432;-70
2022/10/24 08:31:51;;;;;;;6.87;3.00;;;;;;;16.53;100.00;100500.56;5014085;28;20822;-71
2022/10/24 08:34:19;;;;;;;6.60;3.03;;;;;;;16.60;100.00;100497.25;5014053;28;20451;-69
2022/10/24 08:36:46;;;;;;;10.13;2.70;;;;;;;16.63;100.00;100493.84;5014310;28;20437;-71
2022/10/24 08:39:13;;;;;;;6.53;2.23;;;;;;;16.68;100.00;100488.13;5014305;28;20451;-71
2022/10/24 08:41:45;;;;;;;6.33;1.80;;;;;;;16.77;100.00;100488.81;5014323;28;20489;-70
2022/10/24 08:44:20;;;;;;;6.03;2.10;;;;;;;16.84;100.00;100486.31;5014431;28;20428;-71
2022/10/24 08:46:51;;;;;;;7.20;2.10;;;;;;;16.88;100.00;100487.22;5013994;28;20958;-71
2022/10/24 08:49:24;;;;;;;7.13;2.07;;;;;;;16.95;100.00;100486.63;5014088;28;20467;-71
2022/10/24 08:51:55;;;;;;;8.20;1.83;;;;;;;17.00;100.00;100483.66;5013989;28;20552;-71
2022/10/24 08:54:25;;;;;;;5.80;1.90;;;;;;;17.10;100.00;100476.91;5014162;28;20412;-71
2022/10/24 08:56:54;;;;;;;4.23;1.43;;;;;;;17.13;100.00;100482.47;5014076;28;20444;-71
2022/10/24 08:59:21;;;;;;;5.90;1.87;;;;;;;17.13;100.00;100474.25;5013574;28;20447;-71
2022/10/24 09:01:55;;;;;;;7.23;2.03;;;;;;;17.13;100.00;100471.53;5012883;28;20436;-70
2022/10/24 09:04:24;;;;;;;10.53;2.13;;;;;;;17.22;100.00;100474.13;5012570;28;20460;-68
2022/10/24 09:06:53;;;;;;;7.30;2.50;;;;;;;17.30;100.00;100483.31;5012323;28;20464;-67
2022/10/24 09:09:26;;;;;;;9.07;1.87;;;;;;;17.38;100.00;100498.78;4993802;28;20465;-67
2022/10/24 09:11:55;;;;;;;3.80;1.20;;;;;;;17.45;100.00;100493.53;4994233;28;20442;-67
2022/10/24 09:14:24;;;;;;;7.97;2.10;;;;;;;17.47;100.00;100488.47;4994253;28;20440;-67
2022/10/24 09:16:56;;;;;;;5.90;2.20;;;;;;;17.53;100.00;100484.34;4994120;28;20808;-67
2022/10/24 09:19:25;;;;;;;8.50;2.00;;;;;;;17.57;100.00;100487.16;4993943;28;20425;-67
2022/10/24 09:21:53;;;;;;;4.70;1.60;;;;;;;17.56;100.00;100483.63;4989143;28;20522;-67
2022/10/24 09:24:37;;;;;;;4.13;1.20;;;;;;;17.67;100.00;100483.94;4992326;28;20465;-68
2022/10/24 09:27:09;;;;;;;5.90;1.83;;;;;;;17.76;100.00;100483.81;4993113;28;20429;-68
2022/10/24 09:29:35;;;;;;;5.07;2.17;;;;;;;17.76;100.00;100481.84;4992983;28;20481;-67
2022/10/24 09:32:03;;;;;;;4.80;1.37;;;;;;;17.83;99.91;100484.75;4992446;28;20477;-67
2022/10/24 09:34:30;;;;;;;9.97;2.20;;;;;;;17.89;100.00;100491.59;4991715;28;20813;-67
2022/10/24 09:36:56;;;;;;;4.53;1.40;;;;;;;17.92;100.00;100498.28;4992684;28;20511;-67
2022/10/24 09:39:31;;;;;;;5.30;1.77;;;;;;;17.95;100.00;100505.03;4993561;28;20928;-66
2022/10/24 09:41:59;;;;;;;7.30;2.10;;;;;;;17.96;99.96;100496.44;4992376;28;20838;-67
2022/10/24 09:44:35;;;;;;;8.30;1.50;;;;;;;18.06;99.70;100500.59;4993831;28;20449;-67
2022/10/24 09:47:04;;;;;;;4.87;1.90;;;;;;;18.07;98.28;100497.53;4992633;28;20943;-67
2022/10/24 09:49:35;;;;;;;4.13;1.10;;;;;;;18.13;98.17;100484.34;4993967;28;20480;-67
2022/10/24 09:52:07;;;;;;;6.30;1.33;;;;;;;18.16;98.65;100486.38;4992622;28;20481;-68
2022/10/24 09:54:34;;;;;;;9.00;2.13;;;;;;;18.19;98.29;100493.88;5017936;23;20497;-71
2022/10/24 09:57:06;;;;;;;4.97;1.60;;;;;;;18.22;97.48;100503.34;4993309;28;20846;-70
2022/10/24 09:59:40;;;;;;;4.27;1.30;;;;;;;18.19;96.28;100495.81;4992520;28;20788;-70
2022/10/24 10:02:20;;;;;;;6.40;1.77;;;;;;;18.28;96.95;100501.91;4980698;28;20544;-70
2022/10/24 10:04:47;;;;;;;11.07;2.97;;;;;;;18.28;96.54;100494.50;4993543;28;20464;-70
2022/10/24 10:07:16;;;;;;;4.27;1.47;;;;;;;18.21;96.33;100494.34;4992636;28;20536;-70
2022/10/24 10:09:50;;;;;;;6.47;1.83;;;;;;;18.29;95.72;100492.56;4989842;28;20495;-70
2022/10/24 10:12:31;;;;;;;6.17;1.50;;;;;;;18.34;94.85;100489.53;4993414;28;20425;-70
2022/10/24 10:14:58;;;;;;;10.63;1.93;;;;;;;18.32;95.15;100487.13;4993487;28;20461;-70
2022/10/24 10:17:29;;;;;;;5.63;1.30;;;;;;;18.45;95.12;100485.09;4993560;28;20456;-69
2022/10/24 10:19:58;;;;;;;7.10;1.60;;;;;;;18.52;94.22;100482.53;4993561;28;20479;-70
2022/10/24 10:22:26;;;;;;;11.53;1.70;;;;;;;18.62;94.17;100478.41;4993049;28;20453;-70
2022/10/24 10:24:53;;;;;;;5.00;1.20;;;;;;;18.64;93.19;100487.09;4992065;28;20484;-69
2022/10/24 10:27:31;;;;;;;4.90;1.77;;;;;;;18.73;93.56;100481.44;4988864;28;20464;-69
2022/10/24 10:30:10;;;;;;;6.87;1.30;;;;;;;18.76;95.50;100487.00;4992243;28;20488;-72
2022/10/24 10:32:45;;;;;;;5.00;2.10;;;;;;;18.73;93.09;100490.47;4991870;28;20488;-74
2022/10/24 10:35:15;;;;;;;10.60;1.67;;;;;;;18.78;93.10;100481.97;4996930;28;20448;-74
2022/10/24 10:37:48;;;;;;;9.30;1.70;;;;;;;18.73;93.82;100482.25;4996215;28;20468;-69
2022/10/24 10:40:25;;;;;;;4.70;1.40;;;;;;;18.71;92.67;100475.50;4996640;28;20916;-71
2022/10/24 10:43:12;;;;;;;11.17;2.23;;;;;;;18.72;91.82;100479.84;4995367;28;20989;-71
2022/10/24 10:45:45;;;;;;;5.20;1.93;;;;;;;18.74;92.60;100488.53;4994625;28;20460;-71
2022/10/24 10:48:32;;;;;;;8.43;2.03;;;;;;;18.79;91.88;100478.06;4996778;28;20469;-71
2022/10/24 10:51:04;;;;;;;3.97;1.33;;;;;;;18.81;91.70;100481.22;4995466;28;20457;-71
2022/10/24 10:53:37;;;;;;;3.97;1.20;;;;;;;18.87;91.18;100471.56;4994139;28;22430;-71
2022/10/24 10:56:17;;;;;;;6.40;1.60;;;;;;;18.87;91.62;100479.81;4995475;28;20460;-72
2022/10/24 10:58:51;;;;;;;4.27;1.20;;;;;;;18.81;91.15;100481.22;4995546;28;20460;-72
2022/10/24 11:01:27;;;;;;;4.07;1.43;;;;;;;18.84;91.33;100469.53;4995552;28;20472;-71
2022/10/24 11:04:06;;;;;;;5.93;1.60;;;;;;;18.84;90.84;100475.03;4996566;28;20460;-71
2022/10/24 11:06:43;;;;;;;5.93;1.70;;;;;;;18.82;90.67;100471.84;4994795;28;20491;-71
2022/10/24 11:09:23;;;;;;;4.83;1.77;;;;;;;18.80;89.67;100468.66;4993531;28;20469;-72
2022/10/24 11:11:55;;;;;;;5.90;1.40;;;;;;;18.82;90.76;100460.88;4996468;28;20425;-71
2022/10/24 11:14:29;;;;;;;5.13;1.67;;;;;;;18.83;92.30;100462.47;4995196;28;20491;-71
2022/10/24 11:17:00;;;;;;;7.47;1.33;;;;;;;18.86;91.98;100452.72;4994376;28;20472;-72
2022/10/24 11:19:33;;;;;;;6.10;1.67;;;;;;;18.85;89.46;100456.59;4994924;28;20457;-72
2022/10/24 11:22:04;;;;;;;13.43;2.60;;;;;;;18.91;89.92;100463.41;4996362;28;20449;-71
2022/10/24 11:24:37;;;;;;;4.47;1.17;;;;;;;18.92;90.37;100465.00;4995468;28;20512;-71